Time;durP1;ratioP1;P1;durP2;ratioP2;P2;SDS_P1;SDS_P2;PMS_P1;PMS_P2;Temp;Humidity;BMP_temperature;BMP_pressure;BME280_temperature;BME280_humidity;BME280_pressure;Samples;Min_cycle;Max_cycle;Signal;HPM_P1;HPM_P2
2022/12/10 00:00:45;;;;;;;;;;;;;;;4.49;100.00;98801.69;5590388;31;34602;-72
2022/12/10 00:03:52;;;;;;;;;;;;;;;4.49;100.00;98804.31;5590465;31;34851;-72
2022/12/10 00:06:57;;;;;;;;;;;;;;;4.53;100.00;98805.59;5590467;31;34370;-71
2022/12/10 00:10:07;;;;;;;;;;;;;;;4.53;100.00;98800.34;5577542;31;34698;-72
2022/12/10 00:13:16;;;;;;;;;;;;;;;4.57;100.00;98804.28;5590129;31;34173;-72
2022/12/10 00:16:25;;;;;;;;;;;;;;;4.62;100.00;98808.06;5590393;31;35011;-72
2022/12/10 00:19:32;;;;;;;;;;;;;;;4.63;100.00;98812.31;5590331;31;34849;-72
2022/12/10 00:22:41;;;;;;;;;;;;;;;4.62;100.00;98807.22;5576063;31;32856;-72
2022/12/10 00:25:48;;;;;;;;;;;;;;;4.78;100.00;98813.25;5590298;31;34354;-72
2022/12/10 00:28:57;;;;;;;;;;;;;;;4.73;100.00;98820.84;5590373;31;34843;-71
2022/12/10 00:32:06;;;;;;;;;;;;;;;4.53;100.00;98813.50;5590179;31;34937;-71
2022/12/10 00:35:14;;;;;;;;;;;;;;;4.55;100.00;98835.16;5590347;31;34318;-71
2022/12/10 00:38:20;;;;;;;;;;;;;;;4.54;100.00;98828.25;5590115;31;34860;-71
2022/12/10 00:41:26;;;;;;;;;;;;;;;4.60;100.00;98846.00;5590261;31;34817;-71
2022/12/10 00:44:33;;;;;;;;;;;;;;;4.61;100.00;98842.34;5590107;31;34811;-71
2022/12/10 00:47:42;;;;;;;;;;;;;;;4.61;100.00;98858.09;5590129;31;34805;-71
2022/12/10 00:50:55;;;;;;;;;;;;;;;4.63;100.00;98853.53;5590013;31;34852;-71
2022/12/10 00:54:05;;;;;;;;;;;;;;;4.76;100.00;98862.50;5590039;31;34658;-71
2022/12/10 00:57:11;;;;;;;;;;;;;;;4.71;100.00;98864.00;5590333;31;34304;-71
2022/12/10 01:00:19;;;;;;;;;;;;;;;4.67;100.00;98857.44;5589937;31;34342;-71
2022/12/10 01:03:27;;;;;;;;;;;;;;;4.61;100.00;98866.00;5589836;31;34684;-71
2022/12/10 01:06:37;;;;;;;;;;;;;;;4.64;100.00;98871.75;5589769;31;34304;-71
2022/12/10 01:09:44;;;;;;;;;;;;;;;4.59;100.00;98860.91;5575906;31;35962;-71
2022/12/10 01:12:52;;;;;;;;;;;;;;;4.53;100.00;98853.69;5589623;31;34590;-70
2022/12/10 01:16:02;;;;;;;;;;;;;;;4.50;100.00;98855.84;5590186;31;34924;-70
2022/12/10 01:19:10;;;;;;;;;;;;;;;4.55;100.00;98864.06;5589827;31;34265;-70
2022/12/10 01:22:18;;;;;;;;;;;;;;;4.63;100.00;98869.28;5589767;31;34358;-71
2022/12/10 01:25:24;;;;;;;;;;;;;;;4.60;100.00;98877.50;5589973;31;34769;-71
2022/12/10 01:28:32;;;;;;;;;;;;;;;4.65;100.00;98875.16;5589677;31;34349;-71
2022/12/10 01:31:41;;;;;;;;;;;;;;;4.67;100.00;98876.66;5589601;31;34562;-71
2022/12/10 01:34:48;;;;;;;;;;;;;;;4.73;100.00;98870.75;5589482;31;34467;-71
2022/12/10 01:37:55;;;;;;;;;;;;;;;4.77;100.00;98858.09;5576282;31;34947;-71
2022/12/10 01:41:03;;;;;;;;;;;;;;;4.83;100.00;98870.56;5589564;31;34689;-71
2022/12/10 01:44:11;;;;;;;;;;;;;;;4.88;100.00;98863.00;5589410;31;34874;-71
2022/12/10 01:47:20;;;;;;;;;;;;;;;4.90;100.00;98852.28;5589393;31;34217;-71
2022/12/10 01:50:27;;;;;;;;;;;;;;;4.98;100.00;98861.00;5576060;31;34393;-70
2022/12/10 01:53:35;;;;;;;;;;;;;;;5.00;100.00;98860.81;5589251;31;34318;-71
2022/12/10 01:56:45;;;;;;;;;;;;;;;5.00;100.00;98855.56;5589268;31;34783;-70
2022/12/10 02:00:01;;;;;;;;;;;;;;;5.05;100.00;98863.75;5589656;31;34317;-71
2022/12/10 02:03:22;;;;;;;;;;;;;;;5.02;100.00;98872.81;5574815;31;34791;-70
2022/12/10 02:06:46;;;;;;;;;;;;;;;5.06;100.00;98873.28;5589004;31;34894;-71
2022/12/10 02:10:03;;;;;;;;;;;;;;;5.05;100.00;98890.03;5575085;31;36581;-71
2022/12/10 02:13:14;;;;;;;;;;;;;;;4.99;100.00;98890.69;5566663;32;34285;-70
2022/12/10 02:16:31;;;;;;;;;;;;;;;4.97;100.00;98906.66;5569333;32;34291;-70
2022/12/10 02:19:50;;;;;;;;;;;;;;;4.98;100.00;98900.41;5569303;32;34908;-70
2022/12/10 02:23:01;;;;;;;;;;;;;;;4.96;100.00;98894.50;5568087;32;32798;-70
2022/12/10 02:26:15;;;;;;;;;;;;;;;4.97;100.00;98906.66;5569113;32;34777;-70
2022/12/10 02:29:27;;;;;;;;;;;;;;;5.09;100.00;98899.22;5569040;32;34238;-70
2022/12/10 02:32:37;;;;;;;;;;;;;;;5.06;100.00;98891.69;5569002;32;34416;-70
2022/12/10 02:35:50;;;;;;;;;;;;;;;5.05;100.00;98896.09;5568926;32;34520;-70
2022/12/10 02:38:57;;;;;;;;;;;;;;;5.20;100.00;98904.94;5568103;32;34734;-70
2022/12/10 02:42:07;;;;;;;;;;;;;;;5.37;100.00;98907.53;5568806;32;34927;-69
2022/12/10 02:45:13;;;;;;;;;;;;;;;5.50;100.00;98900.72;5570951;32;34304;-70
2022/12/10 02:48:21;;;;;;;;;;;;;;;5.52;100.00;98898.72;5571585;32;34273;-69
2022/12/10 02:51:27;;;;;;;;;;;;;;;5.56;100.00;98896.59;5571450;32;34894;-70
2022/12/10 02:54:43;;;;;;;;;;;;;;;5.58;100.00;98887.50;5570770;32;34859;-69
2022/12/10 02:58:15;;;;;;;;;;;;;;;5.56;100.00;98889.50;5571455;32;34425;-70
2022/12/10 03:01:41;;;;;;;;;;;;;;;5.52;100.00;98890.81;5571476;32;34422;-70
2022/12/10 03:05:04;;;;;;;;;;;;;;;5.48;100.00;98889.53;5570516;32;34686;-70
2022/12/10 03:08:22;;;;;;;;;;;;;;;5.25;100.00;98878.97;5571190;32;34315;-70
2022/12/10 03:11:28;;;;;;;;;;;;;;;5.16;100.00;98892.31;5571190;32;34895;-70
2022/12/10 03:14:38;;;;;;;;;;;;;;;5.07;100.00;98894.16;5590468;31;34366;-71
2022/12/10 03:17:47;;;;;;;;;;;;;;;5.05;100.00;98887.41;5577664;31;34837;-70
2022/12/10 03:21:02;;;;;;;;;;;;;;;4.97;100.00;98898.78;5590894;31;34931;-70
2022/12/10 03:24:08;;;;;;;;;;;;;;;4.97;100.00;98901.41;5590727;31;34952;-71
2022/12/10 03:27:18;;;;;;;;;;;;;;;4.92;100.00;98919.47;5590817;31;34908;-71
2022/12/10 03:30:26;;;;;;;;;;;;;;;4.91;100.00;98935.41;5577326;31;34231;-71
2022/12/10 03:33:35;;;;;;;;;;;;;;;4.83;100.00;98933.63;5590798;31;34280;-70
2022/12/10 03:36:45;;;;;;;;;;;;;;;4.79;100.00;98927.84;5590702;31;34897;-69
2022/12/10 03:39:53;;;;;;;;;;;;;;;4.75;100.00;98923.09;5590687;31;34361;-70
2022/12/10 03:43:03;;;;;;;;;;;;;;;4.65;100.00;98939.03;5577561;31;35178;-70
2022/12/10 03:46:10;;;;;;;;;;;;;;;4.62;100.00;98930.66;5590636;31;34246;-71
2022/12/10 03:49:16;;;;;;;;;;;;;;;4.68;100.00;98933.47;5590609;31;34223;-71
2022/12/10 03:52:24;;;;;;;;;;;;;;;4.66;100.00;98942.47;5590582;31;34273;-71
2022/12/10 03:55:31;;;;;;;;;;;;;;;4.65;100.00;98957.41;5589553;31;34931;-70
2022/12/10 03:58:41;;;;;;;;;;;;;;;4.60;100.00;98951.03;5590648;31;34806;-71
2022/12/10 04:01:48;;;;;;;;;;;;;;;4.65;100.00;98949.53;5590494;31;34760;-71
2022/12/10 04:04:55;;;;;;;;;;;;;;;4.66;100.00;98937.22;5590499;31;34812;-71
2022/12/10 04:08:01;;;;;;;;;;;;;;;4.65;100.00;98933.78;5536064;31;1724790;-70
2022/12/10 04:11:10;;;;;;;;;;;;;;;4.57;100.00;98938.22;5590362;31;34887;-71
2022/12/10 04:17:42;;;;;;;;;;;;;;;4.59;100.00;98960.72;5590248;31;34364;-72
2022/12/10 04:27:41;;;;;;;;;;;;;;;4.61;100.00;98966.63;5590256;31;34689;-72
2022/12/10 04:30:48;;;;;;;;;;;;;;;4.68;100.00;98975.50;5590350;31;34744;-71
2022/12/10 04:33:56;;;;;;;;;;;;;;;4.66;100.00;98974.00;5590255;31;34374;-71
2022/12/10 04:37:06;;;;;;;;;;;;;;;4.59;100.00;98979.09;5590224;31;34476;-71
2022/12/10 04:40:12;;;;;;;;;;;;;;;4.61;100.00;98976.28;5590112;31;34876;-71
2022/12/10 04:43:21;;;;;;;;;;;;;;;4.56;100.00;98963.66;5590165;31;34427;-71
2022/12/10 04:46:29;;;;;;;;;;;;;;;4.53;100.00;98965.81;5590101;31;34855;-73
2022/12/10 04:49:40;;;;;;;;;;;;;;;4.59;100.00;98958.09;5590028;31;34590;-72
2022/12/10 04:52:46;;;;;;;;;;;;;;;4.51;100.00;98957.25;5576570;31;34746;-72
2022/12/10 04:55:54;;;;;;;;;;;;;;;4.50;100.00;98961.72;5575741;31;33799;-72
2022/12/10 04:59:04;;;;;;;;;;;;;;;4.54;100.00;98960.41;5590096;31;34799;-73
2022/12/10 05:02:11;;;;;;;;;;;;;;;4.55;100.00;98961.22;5590051;31;34701;-74
2022/12/10 05:05:18;;;;;;;;;;;;;;;4.58;100.00;98959.06;5589972;31;34287;-71
2022/12/10 05:08:24;;;;;;;;;;;;;;;4.52;100.00;98957.09;5589409;31;34296;-72
2022/12/10 05:11:33;;;;;;;;;;;;;;;4.47;100.00;98967.28;5589949;31;34380;-73
2022/12/10 05:14:42;;;;;;;;;;;;;;;4.41;100.00;98973.16;5575268;31;33107;-71
2022/12/10 05:17:48;;;;;;;;;;;;;;;4.52;100.00;98982.53;5589701;31;34507;-73
2022/12/10 05:21:00;;;;;;;;;;;;;;;4.57;100.00;98982.88;5563632;31;32897;-74
2022/12/10 05:24:06;;;;;;;;;;;;;;;4.53;100.00;98997.31;5590067;31;34305;-72
2022/12/10 05:27:14;;;;;;;;;;;;;;;4.50;100.00;98990.59;5589690;31;34249;-72
2022/12/10 05:30:22;;;;;;;;;;;;;;;4.42;100.00;99001.06;5589648;31;34893;-73
2022/12/10 05:33:29;;;;;;;;;;;;;;;4.45;100.00;99005.19;5589648;31;34294;-72
2022/12/10 05:36:38;;;;;;;;;;;;;;;4.44;100.00;99001.75;5589486;31;35019;-74
2022/12/10 05:39:47;;;;;;;;;;;;;;;4.51;100.00;99004.53;5589880;31;34199;-73
2022/12/10 05:42:54;;;;;;;;;;;;;;;4.41;100.00;98995.97;5589508;31;35040;-74
2022/12/10 05:46:01;;;;;;;;;;;;;;;4.36;100.00;98993.84;5589385;31;34245;-74
2022/12/10 05:49:09;;;;;;;;;;;;;;;4.35;100.00;98989.59;5589283;31;34485;-73
2022/12/10 05:52:16;;;;;;;;;;;;;;;4.28;100.00;98996.47;5589678;31;34225;-75
2022/12/10 05:55:23;;;;;;;;;;;;;;;4.26;100.00;99003.69;5588866;31;35062;-73
2022/12/10 05:58:30;;;;;;;;;;;;;;;4.27;100.00;99006.12;5589197;31;34213;-77
2022/12/10 06:01:38;;;;;;;;;;;;;;;4.28;100.00;99002.53;5589136;31;34845;-74
2022/12/10 06:04:45;;;;;;;;;;;;;;;4.25;100.00;98997.63;5588923;31;34891;-73
2022/12/10 06:07:52;;;;;;;;;;;;;;;4.15;100.00;98996.94;5588904;31;34706;-75
2022/12/10 06:11:03;;;;;;;;;;;;;;;4.16;100.00;99000.38;5588933;31;34385;-72
2022/12/10 06:14:11;;;;;;;;;;;;;;;4.16;100.00;99021.38;5588823;31;34232;-72
2022/12/10 06:17:19;;;;;;;;;;;;;;;4.17;100.00;99018.56;5588720;31;34424;-72
2022/12/10 06:20:26;;;;;;;;;;;;;;;4.15;100.00;99022.34;5590854;31;34574;-73
2022/12/10 06:23:37;;;;;;;;;;;;;;;4.22;100.00;99032.03;5591389;31;34834;-73
2022/12/10 06:26:44;;;;;;;;;;;;;;;4.20;100.00;99034.03;5577919;31;34272;-74
2022/12/10 06:29:51;;;;;;;;;;;;;;;4.25;100.00;99030.91;5591302;31;34136;-72
2022/12/10 06:32:56;;;;;;;;;;;;;;;4.19;100.00;99042.88;5591543;31;35029;-74
2022/12/10 06:36:06;;;;;;;;;;;;;;;4.20;100.00;99043.69;5591103;31;34626;-75
2022/12/10 06:39:14;;;;;;;;;;;;;;;4.25;100.00;99039.63;5591192;31;34634;-73
2022/12/10 06:42:21;;;;;;;;;;;;;;;4.17;100.00;99036.94;5591061;31;34183;-74
2022/12/10 06:45:29;;;;;;;;;;;;;;;4.21;100.00;99040.87;5577752;31;34184;-72
2022/12/10 06:48:36;;;;;;;;;;;;;;;4.15;100.00;99040.72;5591085;31;34689;-74
2022/12/10 06:51:43;;;;;;;;;;;;;;;4.21;100.00;99047.97;5590727;31;34485;-73
2022/12/10 06:54:56;;;;;;;;;;;;;;;4.12;100.00;99057.59;5590984;31;34374;-71
2022/12/10 06:58:04;;;;;;;;;;;;;;;4.08;100.00;99045.78;5576589;31;34288;-74
2022/12/10 07:01:14;;;;;;;;;;;;;;;4.07;100.00;99044.12;5590989;31;35007;-75
2022/12/10 07:04:23;;;;;;;;;;;;;;;4.03;100.00;99041.97;5577749;31;34687;-73
2022/12/10 07:07:28;;;;;;;;;;;;;;;3.98;100.00;99052.12;5590838;31;34360;-73
2022/12/10 07:10:36;;;;;;;;;;;;;;;3.99;100.00;99051.16;5577096;31;32943;-72
2022/12/10 07:13:45;;;;;;;;;;;;;;;4.03;100.00;99042.81;5564325;31;33634;-71
2022/12/10 07:16:51;;;;;;;;;;;;;;;3.86;100.00;99046.38;5590827;31;34843;-73
2022/12/10 07:19:59;;;;;;;;;;;;;;;3.85;100.00;99050.78;5590804;31;34029;-73
2022/12/10 07:23:07;;;;;;;;;;;;;;;3.77;100.00;99042.88;5576581;31;35806;-74
2022/12/10 07:26:14;;;;;;;;;;;;;;;3.75;100.00;99052.69;5590882;31;34174;-74
2022/12/10 07:29:23;;;;;;;;;;;;;;;3.68;100.00;99050.88;5577740;31;34671;-74
2022/12/10 07:32:30;;;;;;;;;;;;;;;3.75;100.00;99044.00;5590754;31;34724;-74
2022/12/10 07:35:37;;;;;;;;;;;;;;;3.67;100.00;99038.75;5590249;31;34888;-73
2022/12/10 07:38:54;;;;;;;;;;;;;;;3.63;100.00;99029.53;5590598;31;34159;-73
2022/12/10 07:42:01;;;;;;;;;;;;;;;3.70;100.00;99015.63;5590648;31;34334;-73
2022/12/10 07:45:12;;;;;;;;;;;;;;;3.73;100.00;99012.69;5590282;31;34569;-73
2022/12/10 07:48:17;;;;;;;;;;;;;;;3.77;100.00;99024.53;5590225;31;34391;-76
2022/12/10 07:51:28;;;;;;;;;;;;;;;3.67;100.00;99030.88;5590503;31;34344;-75
2022/12/10 07:54:36;;;;;;;;;;;;;;;3.66;100.00;99039.72;5576347;31;33369;-74
2022/12/10 07:57:42;;;;;;;;;;;;;;;3.57;100.00;99045.88;5590209;31;35075;-74
2022/12/10 08:00:48;;;;;;;;;;;;;;;3.61;100.00;99053.28;5590318;31;34156;-73
2022/12/10 08:03:56;;;;;;;;;;;;;;;3.68;100.00;99051.66;5590403;31;34082;-74
2022/12/10 08:07:03;;;;;;;;;;;;;;;3.76;100.00;99061.41;5589931;31;34651;-74
2022/12/10 08:10:08;;;;;;;;;;;;;;;3.95;100.00;99053.28;5590172;31;34947;-74
2022/12/10 08:13:16;;;;;;;;;;;;;;;4.13;100.00;99040.06;5590202;31;34269;-73
2022/12/10 08:16:24;;;;;;;;;;;;;;;4.24;100.00;99037.12;5563870;31;33036;-73
2022/12/10 08:19:30;;;;;;;;;;;;;;;4.37;100.00;99038.31;5590304;31;35522;-73
2022/12/10 08:22:36;;;;;;;;;;;;;;;4.61;100.00;99042.78;5589999;31;34743;-73
2022/12/10 08:25:43;;;;;;;;;;;;;;;4.46;100.00;99039.16;5590002;31;34525;-73
2022/12/10 08:28:50;;;;;;;;;;;;;;;4.52;100.00;99041.13;5575817;31;34314;-73
2022/12/10 08:31:58;;;;;;;;;;;;;;;4.40;100.00;99036.38;5590087;31;34545;-74
2022/12/10 08:35:07;;;;;;;;;;;;;;;4.45;100.00;99031.44;5575970;31;35539;-72
2022/12/10 08:38:14;;;;;;;;;;;;;;;4.54;100.00;99036.56;5589686;31;34698;-73
2022/12/10 08:41:22;;;;;;;;;;;;;;;4.67;100.00;99036.06;5589268;31;34238;-73
2022/12/10 08:44:26;;;;;;;;;;;;;;;4.78;100.00;99025.25;5589257;31;34476;-73
2022/12/10 08:47:33;;;;;;;;;;;;;;;4.84;100.00;99029.03;5589676;31;34134;-73
2022/12/10 08:50:40;;;;;;;;;;;;;;;4.85;100.00;99031.47;5589707;31;34272;-74
2022/12/10 08:53:46;;;;;;;;;;;;;;;4.68;100.00;99040.34;5589501;31;34311;-73
2022/12/10 08:56:53;;;;;;;;;;;;;;;4.66;100.00;99048.37;5575839;31;34478;-74
2022/12/10 08:59:59;;;;;;;;;;;;;;;4.71;100.00;99055.75;5589668;31;34313;-73
2022/12/10 09:03:06;;;;;;;;;;;;;;;4.76;100.00;99058.72;5589647;31;34401;-73
2022/12/10 09:06:13;;;;;;;;;;;;;;;4.94;100.00;99055.97;5589423;31;34396;-74
2022/12/10 09:09:19;;;;;;;;;;;;;;;4.95;100.00;99068.09;5589374;31;34774;-73
2022/12/10 09:12:26;;;;;;;;;;;;;;;4.92;100.00;99066.62;5575951;31;34191;-73
2022/12/10 09:15:33;;;;;;;;;;;;;;;4.86;100.00;99055.94;5589221;31;34702;-74
2022/12/10 09:18:39;;;;;;;;;;;;;;;4.90;100.00;99062.50;5589811;31;34461;-73
2022/12/10 09:21:46;;;;;;;;;;;;;;;4.94;100.00;99080.41;5589461;31;34181;-72
2022/12/10 09:24:52;;;;;;;;;;;;;;;4.90;100.00;99067.75;5589363;31;34304;-73
2022/12/10 09:27:59;;;;;;;;;;;;;;;4.95;100.00;99057.59;5589276;31;35832;-73
2022/12/10 09:31:07;;;;;;;;;;;;;;;4.92;100.00;99048.22;5589203;31;34247;-73
2022/12/10 09:34:23;;;;;;;;;;;;;;;4.97;100.00;99048.56;5575578;31;35441;-75
2022/12/10 09:37:28;;;;;;;;;;;;;;;4.95;100.00;99058.41;5550215;31;34346;-74
2022/12/10 09:40:43;;;;;;;;;;;;;;;4.88;100.00;99059.25;5575420;31;34225;-74
2022/12/10 09:43:56;;;;;;;;;;;;;;;4.79;100.00;99066.31;5589127;31;34481;-72
2022/12/10 09:47:03;;;;;;;;;;;;;;;4.64;100.00;99049.53;5575849;31;35035;-75
2022/12/10 09:50:20;;;;;;;;;;;;;;;4.73;100.00;99036.25;5589094;31;34288;-73
2022/12/10 09:53:28;;;;;;;;;;;;;;;4.83;100.00;99038.72;5587704;31;34957;-74
2022/12/10 09:56:41;;;;;;;;;;;;;;;4.80;100.00;99034.59;5589096;31;34694;-74
2022/12/10 09:59:49;;;;;;;;;;;;;;;4.89;100.00;99030.16;5575446;31;34902;-72
2022/12/10 10:02:58;;;;;;;;;;;;;;;4.70;100.00;99015.53;5588859;31;34922;-72
2022/12/10 10:06:06;;;;;;;;;;;;;;;4.37;100.00;99003.34;5588685;31;34622;-73
2022/12/10 10:09:15;;;;;;;;;;;;;;;4.41;100.00;99016.97;5588584;31;34377;-73
2022/12/10 10:12:23;;;;;;;;;;;;;;;4.47;100.00;99017.16;5588410;31;34727;-72
2022/12/10 10:15:31;;;;;;;;;;;;;;;4.43;100.00;99012.41;5561794;31;35150;-73
2022/12/10 10:18:42;;;;;;;;;;;;;;;4.57;100.00;99004.69;5588436;31;34917;-73
2022/12/10 10:21:49;;;;;;;;;;;;;;;4.65;100.00;99002.06;5588490;31;34608;-73
2022/12/10 10:25:02;;;;;;;;;;;;;;;4.74;100.00;99001.09;5588456;31;34629;-74
2022/12/10 10:28:11;;;;;;;;;;;;;;;4.65;100.00;99009.94;5588605;31;34937;-73
2022/12/10 10:31:26;;;;;;;;;;;;;;;4.57;100.00;98996.81;5587867;31;34926;-73
2022/12/10 10:34:30;;;;;;;;;;;;;;;4.60;100.00;99001.75;5588176;31;34786;-74
2022/12/10 10:37:34;;;;;;;;;;;;;;;4.68;100.00;99008.81;5574627;31;34614;-73
2022/12/10 10:40:41;;;;;;;;;;;;;;;4.78;100.00;98996.34;5574681;31;33511;-74
2022/12/10 10:43:52;;;;;;;;;;;;;;;4.59;100.00;98994.87;5588080;31;34392;-73
2022/12/10 10:46:58;;;;;;;;;;;;;;;4.57;100.00;99001.25;5573780;31;33011;-73
2022/12/10 10:50:06;;;;;;;;;;;;;;;4.71;100.00;99008.47;5587940;31;34721;-75
2022/12/10 10:53:24;;;;;;;;;;;;;;;4.69;100.00;99007.84;5588095;31;34884;-74
2022/12/10 10:56:39;;;;;;;;;;;;;;;4.74;100.00;99010.78;5588171;31;34306;-73
2022/12/10 10:59:46;;;;;;;;;;;;;;;4.68;100.00;99014.91;5588122;31;34840;-73
2022/12/10 11:02:52;;;;;;;;;;;;;;;4.68;100.00;99011.44;5587861;31;34357;-75
2022/12/10 11:05:59;;;;;;;;;;;;;;;4.70;100.00;99010.28;5576507;31;34318;-74
2022/12/10 11:09:04;;;;;;;;;;;;;;;4.74;100.00;99002.91;5577129;31;33466;-73
2022/12/10 11:12:36;;;;;;;;;;;;;;;4.66;100.00;99003.72;5590741;31;34720;-73
2022/12/10 11:15:45;;;;;;;;;;;;;;;4.56;100.00;98992.53;5590997;31;34917;-73
2022/12/10 11:18:53;;;;;;;;;;;;;;;4.65;100.00;98996.00;5590790;31;34247;-72
2022/12/10 11:22:15;;;;;;;;;;;;;;;4.67;100.00;98994.84;5590919;31;34272;-74
2022/12/10 11:25:33;;;;;;;;;;;;;;;4.63;100.00;98983.03;5577021;31;34908;-73
2022/12/10 11:28:48;;;;;;;;;;;;;;;4.37;100.00;98964.81;5590691;31;35019;-74
2022/12/10 11:32:02;;;;;;;;;;;;;;;4.51;100.00;98975.62;5590646;31;34279;-73
2022/12/10 11:35:17;;;;;;;;;;;;;;;4.40;100.00;98966.28;5590655;31;34932;-73
2022/12/10 11:38:27;;;;;;;;;;;;;;;4.50;100.00;98955.63;5576716;31;35303;-73
2022/12/10 11:41:36;;;;;;;;;;;;;;;4.51;100.00;98952.00;5590627;31;35369;-74
2022/12/10 11:45:11;;;;;;;;;;;;;;;4.46;100.00;98949.87;5590962;31;34634;-74
2022/12/10 11:48:30;;;;;;;;;;;;;;;4.36;100.00;98952.66;5555567;31;33086;-74
2022/12/10 11:51:42;;;;;;;;;;;;;;;4.16;100.00;98945.28;5576779;31;34621;-74
2022/12/10 11:54:52;;;;;;;;;;;;;;;3.97;100.00;98938.47;5590971;31;34267;-75
2022/12/10 11:58:17;;;;;;;;;;;;;;;3.91;100.00;98926.03;5590342;31;34880;-75
2022/12/10 12:01:24;;;;;;;;;;;;;;;3.85;100.00;98916.16;5576112;31;34498;-74
2022/12/10 12:04:32;;;;;;;;;;;;;;;3.91;100.00;98908.50;5590385;31;34309;-75
2022/12/10 12:07:57;;;;;;;;;;;;;;;3.80;100.00;98911.41;5590243;31;35122;-75
2022/12/10 12:11:10;;;;;;;;;;;;;;;3.72;100.00;98902.72;5577045;31;34932;-76
2022/12/10 12:14:29;;;;;;;;;;;;;;;3.70;100.00;98908.09;5590191;31;34923;-77
2022/12/10 12:17:41;;;;;;;;;;;;;;;3.59;100.00;98910.19;5576190;31;34208;-76
2022/12/10 12:21:06;;;;;;;;;;;;;;;3.60;100.00;98906.59;5590266;31;34217;-73
2022/12/10 12:24:17;;;;;;;;;;;;;;;3.54;100.00;98899.34;5590547;31;34684;-77
2022/12/10 12:27:35;;;;;;;;;;;;;;;3.56;100.00;98893.00;5590520;31;34279;-76
2022/12/10 12:30:45;;;;;;;;;;;;;;;3.45;100.00;98898.50;5590288;31;33893;-75
2022/12/10 12:34:05;;;;;;;;;;;;;;;3.54;100.00;98892.31;5590083;31;34774;-79
2022/12/10 12:37:14;;;;;;;;;;;;;;;3.57;100.00;98899.88;5590147;31;35148;-75
2022/12/10 12:40:32;;;;;;;;;;;;;;;3.43;100.00;98885.59;5590002;31;34357;-75
2022/12/10 12:43:46;;;;;;;;;;;;;;;3.47;100.00;98886.91;5563298;31;34478;-74
2022/12/10 12:46:52;;;;;;;;;;;;;;;3.50;100.00;98880.50;5589935;31;34468;-75
2022/12/10 12:50:01;;;;;;;;;;;;;;;3.47;100.00;98897.41;5589577;31;34333;-74
2022/12/10 12:53:10;;;;;;;;;;;;;;;3.40;100.00;98887.69;5575885;31;35246;-75
2022/12/10 12:56:24;;;;;;;;;;;;;;;3.33;100.00;98898.00;5589971;31;34632;-74
2022/12/10 12:59:40;;;;;;;;;;;;;;;3.35;100.00;98896.03;5576210;31;34764;-74
2022/12/10 13:03:23;;;;;;;;;;;;;;;3.29;100.00;98901.09;5589919;31;35069;-74
2022/12/10 13:06:33;;;;;;;;;;;;;;;3.20;100.00;98902.00;5514513;31;34819;-74
2022/12/10 13:09:48;;;;;;;;;;;;;;;3.20;100.00;98907.25;5589942;31;34813;-74
2022/12/10 13:13:21;;;;;;;;;;;;;;;3.21;100.00;98907.09;5589555;31;35022;-74
2022/12/10 13:16:35;;;;;;;;;;;;;;;3.19;100.00;98911.69;5576362;31;34052;-73
2022/12/10 13:19:41;;;;;;;;;;;;;;;3.15;100.00;98912.97;5575698;31;34472;-73
2022/12/10 13:22:58;;;;;;;;;;;;;;;3.21;100.00;98922.81;5589748;31;34359;-75
2022/12/10 13:26:04;;;;;;;;;;;;;;;3.14;100.00;98919.19;5589601;31;34704;-74
2022/12/10 13:29:15;;;;;;;;;;;;;;;3.09;100.00;98921.47;5575703;31;34364;-74
2022/12/10 13:32:42;;;;;;;;;;;;;;;3.12;100.00;98915.09;5589603;31;34976;-73
2022/12/10 13:35:57;;;;;;;;;;;;;;;3.09;100.00;98910.16;5589600;31;34347;-72
2022/12/10 13:39:13;;;;;;;;;;;;;;;3.02;100.00;98902.91;5575666;31;35138;-73
2022/12/10 13:45:48;;;;;;;;;;;;;;;3.01;100.00;98901.28;5589372;31;34440;-72
2022/12/10 13:48:56;;;;;;;;;;;;;;;2.98;100.00;98912.06;5589400;31;34924;-73
2022/12/10 13:52:07;;;;;;;;;;;;;;;3.05;100.00;98899.97;5575074;31;33360;-74
2022/12/10 13:55:15;;;;;;;;;;;;;;;3.00;100.00;98902.25;5589549;31;34532;-72
2022/12/10 13:58:27;;;;;;;;;;;;;;;2.98;100.00;98898.97;5589096;31;34877;-73
2022/12/10 14:01:55;;;;;;;;;;;;;;;3.02;100.00;98900.31;5589136;31;34199;-73
2022/12/10 14:05:28;;;;;;;;;;;;;;;2.97;100.00;98893.88;5589271;31;34661;-73
2022/12/10 14:08:45;;;;;;;;;;;;;;;3.01;100.00;98888.16;5585820;31;34212;-72
2022/12/10 14:11:58;;;;;;;;;;;;;;;3.04;100.00;98881.81;5575746;31;34866;-72
2022/12/10 14:15:07;;;;;;;;;;;;;;;2.97;100.00;98880.78;5575020;31;33109;-72
2022/12/10 14:18:16;;;;;;;;;;;;;;;3.06;100.00;98883.28;5588790;31;34477;-71
2022/12/10 14:21:21;;;;;;;;;;;;;;;3.00;100.00;98877.88;5588812;31;34755;-73
2022/12/10 14:24:27;;;;;;;;;;;;;;;2.92;100.00;98878.63;5588776;31;34379;-73
2022/12/10 14:27:37;;;;;;;;;;;;;;;2.91;100.00;98890.09;5575835;31;34844;-73
2022/12/10 14:30:46;;;;;;;;;;;;;;;2.96;100.00;98881.75;5588663;31;34310;-73
2022/12/10 14:33:55;;;;;;;;;;;;;;;2.92;100.00;98885.66;5588444;31;34307;-73
2022/12/10 14:37:02;;;;;;;;;;;;;;;2.95;100.00;98882.75;5588832;31;35024;-72
2022/12/10 14:40:09;;;;;;;;;;;;;;;2.92;100.00;98877.81;5589733;31;34312;-73
2022/12/10 14:43:17;;;;;;;;;;;;;;;2.88;100.00;98885.16;5576932;31;32741;-73
2022/12/10 14:46:27;;;;;;;;;;;;;;;2.85;100.00;98882.03;5577044;31;34783;-71
2022/12/10 14:49:38;;;;;;;;;;;;;;;2.84;100.00;98875.97;5590886;31;35116;-72
2022/12/10 14:52:52;;;;;;;;;;;;;;;2.85;100.00;98880.25;5590544;31;34273;-71
2022/12/10 14:56:00;;;;;;;;;;;;;;;2.92;100.00;98883.03;5591083;31;34322;-75
2022/12/10 14:59:18;;;;;;;;;;;;;;;2.91;100.00;98884.84;5591448;31;34782;-73
2022/12/10 15:02:30;;;;;;;;;;;;;;;2.86;100.00;98876.62;5591089;31;34183;-73
2022/12/10 15:05:38;;;;;;;;;;;;;;;2.80;100.00;98876.44;5591121;31;34709;-74
2022/12/10 15:08:43;;;;;;;;;;;;;;;2.88;100.00;98881.72;5563723;31;33053;-73
2022/12/10 15:11:59;;;;;;;;;;;;;;;2.92;100.00;98872.56;5591066;31;34923;-74
2022/12/10 15:15:07;;;;;;;;;;;;;;;2.91;100.00;98876.97;5577268;31;34928;-74
2022/12/10 15:18:16;;;;;;;;;;;;;;;2.89;100.00;98873.72;5591005;31;34971;-72
2022/12/10 15:21:26;;;;;;;;;;;;;;;2.85;100.00;98871.56;5590821;31;35636;-72
2022/12/10 15:24:35;;;;;;;;;;;;;;;2.86;100.00;98862.72;5590889;31;34776;-73
2022/12/10 15:27:53;;;;;;;;;;;;;;;2.85;100.00;98854.06;5590853;31;34797;-72
2022/12/10 15:31:19;;;;;;;;;;;;;;;2.88;100.00;98858.16;5590866;31;34242;-72
2022/12/10 15:34:26;;;;;;;;;;;;;;;2.87;100.00;98851.25;5590851;31;34255;-72
2022/12/10 15:37:39;;;;;;;;;;;;;;;3.01;100.00;98861.16;5563613;31;34461;-72
2022/12/10 15:40:43;;;;;;;;;;;;;;;2.97;100.00;98859.84;5591054;31;34184;-71
2022/12/10 15:43:57;;;;;;;;;;;;;;;2.98;100.00;98845.75;5576687;31;34344;-72
2022/12/10 15:47:10;;;;;;;;;;;;;;;2.95;100.00;98853.94;5576126;31;34397;-73
2022/12/10 15:50:16;;;;;;;;;;;;;;;2.94;100.00;98839.19;5576517;31;34400;-72
2022/12/10 15:53:24;;;;;;;;;;;;;;;2.92;100.00;98839.34;5590612;31;34285;-72
2022/12/10 15:56:37;;;;;;;;;;;;;;;2.95;100.00;98835.59;5590567;31;34469;-71
2022/12/10 15:59:44;;;;;;;;;;;;;;;2.99;100.00;98834.31;5590688;31;34220;-72
2022/12/10 16:02:54;;;;;;;;;;;;;;;2.99;100.00;98835.13;5590592;31;34198;-73
2022/12/10 16:06:00;;;;;;;;;;;;;;;2.97;100.00;98829.22;5590427;31;34901;-73
2022/12/10 16:09:03;;;;;;;;;;;;;;;3.03;100.00;98825.16;5590601;31;34329;-73
2022/12/10 16:12:08;;;;;;;;;;;;;;;3.01;100.00;98821.84;5590295;31;34786;-73
2022/12/10 16:15:18;;;;;;;;;;;;;;;3.03;100.00;98827.78;5590339;31;34288;-75
2022/12/10 16:18:24;;;;;;;;;;;;;;;3.04;100.00;98816.31;5590374;31;34423;-73
2022/12/10 16:21:35;;;;;;;;;;;;;;;3.03;100.00;98812.87;5590394;31;35031;-72
2022/12/10 16:24:41;;;;;;;;;;;;;;;3.02;100.00;98816.47;5590341;31;34559;-73
2022/12/10 16:27:50;;;;;;;;;;;;;;;3.10;100.00;98812.25;5590263;31;34240;-71
2022/12/10 16:30:59;;;;;;;;;;;;;;;3.08;100.00;98811.59;5590485;31;34903;-71
2022/12/10 16:34:06;;;;;;;;;;;;;;;3.11;100.00;98806.84;5576447;31;34348;-72
2022/12/10 16:37:12;;;;;;;;;;;;;;;3.14;100.00;98803.91;5589775;31;34878;-72
2022/12/10 16:40:19;;;;;;;;;;;;;;;3.15;100.00;98802.91;5590120;31;34458;-72
2022/12/10 16:43:28;;;;;;;;;;;;;;;3.16;100.00;98793.25;5577046;31;34886;-72